sensor_id;sensor_type;location;lat;lon;timestamp;pressure;altitude;pressure_sealevel;temperature;humidity
31044;BME280;17710;52.520;13.352;2023-11-19T00:01:25;101236.09;;;9.11;64.24
31044;BME280;17710;52.520;13.352;2023-11-19T00:03:51;101222.56;;;9.27;64.34
31044;BME280;17710;52.520;13.352;2023-11-19T00:06:20;101210.66;;;9.09;64.53
31044;BME280;17710;52.520;13.352;2023-11-19T00:08:46;101200.66;;;9.25;64.06
31044;BME280;17710;52.520;13.352;2023-11-19T00:11:13;101191.13;;;9.17;64.20
31044;BME280;17710;52.520;13.352;2023-11-19T00:13:41;101186.50;;;9.27;64.08
31044;BME280;17710;52.520;13.352;2023-11-19T00:16:07;101181.06;;;9.35;62.96
31044;BME280;17710;52.520;13.352;2023-11-19T00:18:34;101178.72;;;9.21;63.57
31044;BME280;17710;52.520;13.352;2023-11-19T00:21:01;101173.28;;;9.29;63.11
31044;BME280;17710;52.520;13.352;2023-11-19T00:23:29;101168.75;;;9.35;63.41
31044;BME280;17710;52.520;13.352;2023-11-19T00:25:55;101163.34;;;9.40;62.59
31044;BME280;17710;52.520;13.352;2023-11-19T00:28:22;101163.81;;;9.20;63.53
31044;BME280;17710;52.520;13.352;2023-11-19T00:30:52;101160.06;;;9.32;63.14
31044;BME280;17710;52.520;13.352;2023-11-19T00:33:18;101148.00;;;9.57;62.14
31044;BME280;17710;52.520;13.352;2023-11-19T00:35:45;101146.16;;;9.24;63.03
31044;BME280;17710;52.520;13.352;2023-11-19T00:38:11;101143.22;;;9.37;62.60
31044;BME280;17710;52.520;13.352;2023-11-19T00:40:39;101134.75;;;9.23;62.72
31044;BME280;17710;52.520;13.352;2023-11-19T00:43:12;101119.13;;;9.14;63.03
31044;BME280;17710;52.520;13.352;2023-11-19T00:45:38;101111.47;;;9.40;62.42
31044;BME280;17710;52.520;13.352;2023-11-19T00:48:05;101105.47;;;9.34;62.65
31044;BME280;17710;52.520;13.352;2023-11-19T00:50:32;101094.34;;;9.56;61.72
31044;BME280;17710;52.520;13.352;2023-11-19T00:52:58;101094.56;;;9.49;62.08
31044;BME280;17710;52.520;13.352;2023-11-19T00:55:24;101082.34;;;9.45;62.36
31044;BME280;17710;52.520;13.352;2023-11-19T00:57:51;101082.63;;;9.33;62.09
31044;BME280;17710;52.520;13.352;2023-11-19T01:00:18;101080.72;;;9.04;63.31
31044;BME280;17710;52.520;13.352;2023-11-19T01:02:45;101063.91;;;9.09;63.02
31044;BME280;17710;52.520;13.352;2023-11-19T01:05:11;101051.22;;;9.25;62.56
31044;BME280;17710;52.520;13.352;2023-11-19T01:07:40;101053.91;;;9.22;61.94
31044;BME280;17710;52.520;13.352;2023-11-19T01:10:07;101044.00;;;9.32;61.98
31044;BME280;17710;52.520;13.352;2023-11-19T01:12:35;101031.34;;;9.10;62.76
31044;BME280;17710;52.520;13.352;2023-11-19T01:15:05;101011.84;;;9.17;62.10
31044;BME280;17710;52.520;13.352;2023-11-19T01:17:31;100997.66;;;9.22;62.03
31044;BME280;17710;52.520;13.352;2023-11-19T01:19:58;101000.91;;;8.99;62.80
31044;BME280;17710;52.520;13.352;2023-11-19T01:22:24;101005.94;;;9.08;62.16
31044;BME280;17710;52.520;13.352;2023-11-19T01:24:51;100991.88;;;9.07;62.27
31044;BME280;17710;52.520;13.352;2023-11-19T01:27:19;100994.81;;;9.31;62.32
31044;BME280;17710;52.520;13.352;2023-11-19T01:29:46;100994.47;;;9.43;60.99
31044;BME280;17710;52.520;13.352;2023-11-19T01:32:13;100994.75;;;9.32;61.62
31044;BME280;17710;52.520;13.352;2023-11-19T01:34:40;100988.53;;;9.35;61.10
31044;BME280;17710;52.520;13.352;2023-11-19T01:37:07;100980.78;;;9.29;61.60
31044;BME280;17710;52.520;13.352;2023-11-19T01:39:34;100972.28;;;9.51;60.76
31044;BME280;17710;52.520;13.352;2023-11-19T01:42:01;100958.81;;;9.28;61.16
31044;BME280;17710;52.520;13.352;2023-11-19T01:44:27;100937.19;;;9.15;61.58
31044;BME280;17710;52.520;13.352;2023-11-19T01:46:53;100932.56;;;8.91;62.56
31044;BME280;17710;52.520;13.352;2023-11-19T01:49:22;100925.47;;;9.26;61.41
31044;BME280;17710;52.520;13.352;2023-11-19T01:51:49;100920.31;;;9.23;62.03
31044;BME280;17710;52.520;13.352;2023-11-19T01:54:16;100915.97;;;9.20;61.36
31044;BME280;17710;52.520;13.352;2023-11-19T01:56:42;100912.41;;;9.23;61.62
31044;BME280;17710;52.520;13.352;2023-11-19T01:59:11;100907.13;;;8.90;62.92
31044;BME280;17710;52.520;13.352;2023-11-19T02:01:39;100907.16;;;8.89;63.99
31044;BME280;17710;52.520;13.352;2023-11-19T02:04:06;100901.53;;;9.02;64.31
31044;BME280;17710;52.520;13.352;2023-11-19T02:06:34;100890.91;;;9.05;64.20
31044;BME280;17710;52.520;13.352;2023-11-19T02:09:03;100873.25;;;9.07;64.67
31044;BME280;17710;52.520;13.352;2023-11-19T02:11:33;100855.19;;;8.94;64.67
31044;BME280;17710;52.520;13.352;2023-11-19T02:14:00;100838.91;;;9.10;64.90
31044;BME280;17710;52.520;13.352;2023-11-19T02:16:29;100825.63;;;9.13;64.69
31044;BME280;17710;52.520;13.352;2023-11-19T02:18:55;100822.59;;;8.98;66.01
31044;BME280;17710;52.520;13.352;2023-11-19T02:21:21;100808.19;;;9.09;64.77
31044;BME280;17710;52.520;13.352;2023-11-19T02:23:49;100807.47;;;9.34;63.95
31044;BME280;17710;52.520;13.352;2023-11-19T02:26:18;100823.09;;;9.10;64.06
31044;BME280;17710;52.520;13.352;2023-11-19T02:28:49;100818.38;;;9.22;63.91
31044;BME280;17710;52.520;13.352;2023-11-19T02:31:16;100812.09;;;9.26;63.92
31044;BME280;17710;52.520;13.352;2023-11-19T02:33:44;100801.31;;;9.33;63.89
31044;BME280;17710;52.520;13.352;2023-11-19T02:36:10;100792.97;;;9.48;63.33
31044;BME280;17710;52.520;13.352;2023-11-19T02:38:37;100787.34;;;9.59;62.74
31044;BME280;17710;52.520;13.352;2023-11-19T02:41:05;100773.97;;;9.37;63.79
31044;BME280;17710;52.520;13.352;2023-11-19T02:43:31;100779.25;;;9.37;63.47
31044;BME280;17710;52.520;13.352;2023-11-19T02:46:00;100763.84;;;9.24;64.86
31044;BME280;17710;52.520;13.352;2023-11-19T02:48:27;100772.16;;;9.10;64.84
31044;BME280;17710;52.520;13.352;2023-11-19T02:50:54;100769.59;;;9.07;64.84
31044;BME280;17710;52.520;13.352;2023-11-19T02:53:23;100757.44;;;9.01;65.54
31044;BME280;17710;52.520;13.352;2023-11-19T02:55:50;100735.03;;;9.17;64.87
31044;BME280;17710;52.520;13.352;2023-11-19T02:58:16;100728.66;;;9.25;64.47
31044;BME280;17710;52.520;13.352;2023-11-19T03:00:49;100712.66;;;9.31;64.35
31044;BME280;17710;52.520;13.352;2023-11-19T03:03:23;100715.09;;;9.37;64.38
31044;BME280;17710;52.520;13.352;2023-11-19T03:05:54;100700.22;;;9.34;64.33
31044;BME280;17710;52.520;13.352;2023-11-19T03:08:20;100703.63;;;9.38;64.47
31044;BME280;17710;52.520;13.352;2023-11-19T03:10:47;100712.50;;;9.35;64.10
31044;BME280;17710;52.520;13.352;2023-11-19T03:13:14;100729.81;;;9.44;63.46
31044;BME280;17710;52.520;13.352;2023-11-19T03:15:42;100716.06;;;9.33;64.50
31044;BME280;17710;52.520;13.352;2023-11-19T03:18:08;100717.34;;;9.49;63.83
31044;BME280;17710;52.520;13.352;2023-11-19T03:20:36;100721.31;;;9.62;63.91
31044;BME280;17710;52.520;13.352;2023-11-19T03:23:03;100724.44;;;9.47;63.75
31044;BME280;17710;52.520;13.352;2023-11-19T03:25:29;100728.41;;;9.60;63.89
31044;BME280;17710;52.520;13.352;2023-11-19T03:27:59;100728.22;;;9.66;64.14
31044;BME280;17710;52.520;13.352;2023-11-19T03:30:25;100711.59;;;9.36;64.98
31044;BME280;17710;52.520;13.352;2023-11-19T03:32:53;100692.50;;;9.28;66.35
31044;BME280;17710;52.520;13.352;2023-11-19T03:35:20;100690.19;;;9.17;68.80
31044;BME280;17710;52.520;13.352;2023-11-19T03:37:47;100670.41;;;9.04;70.66
31044;BME280;17710;52.520;13.352;2023-11-19T03:40:14;100660.47;;;9.12;71.52
31044;BME280;17710;52.520;13.352;2023-11-19T03:42:41;100657.03;;;9.10;72.42
31044;BME280;17710;52.520;13.352;2023-11-19T03:45:08;100658.72;;;8.84;73.21
31044;BME280;17710;52.520;13.352;2023-11-19T03:47:34;100643.41;;;8.96;73.12
31044;BME280;17710;52.520;13.352;2023-11-19T03:50:01;100642.06;;;8.83;73.97
31044;BME280;17710;52.520;13.352;2023-11-19T03:52:28;100635.53;;;8.95;74.02
31044;BME280;17710;52.520;13.352;2023-11-19T03:54:56;100623.28;;;8.64;75.69
31044;BME280;17710;52.520;13.352;2023-11-19T03:57:22;100622.09;;;8.74;76.38
31044;BME280;17710;52.520;13.352;2023-11-19T03:59:49;100621.69;;;8.88;75.53
31044;BME280;17710;52.520;13.352;2023-11-19T04:02:15;100588.72;;;8.75;76.35
31044;BME280;17710;52.520;13.352;2023-11-19T04:04:42;100580.72;;;8.78;76.21
31044;BME280;17710;52.520;13.352;2023-11-19T04:07:08;100581.63;;;8.77;76.63
31044;BME280;17710;52.520;13.352;2023-11-19T04:09:35;100570.19;;;8.78;76.63
31044;BME280;17710;52.520;13.352;2023-11-19T04:12:04;100575.72;;;8.69;76.79
31044;BME280;17710;52.520;13.352;2023-11-19T04:14:31;100577.69;;;8.92;75.96
31044;BME280;17710;52.520;13.352;2023-11-19T04:16:58;100557.59;;;8.88;75.91
31044;BME280;17710;52.520;13.352;2023-11-19T04:19:24;100553.41;;;9.08;75.08
31044;BME280;17710;52.520;13.352;2023-11-19T04:21:51;100543.09;;;9.01;75.72
31044;BME280;17710;52.520;13.352;2023-11-19T04:24:17;100539.31;;;9.09;75.44
31044;BME280;17710;52.520;13.352;2023-11-19T04:26:45;100536.19;;;9.25;74.63
31044;BME280;17710;52.520;13.352;2023-11-19T04:29:14;100545.50;;;9.08;76.10
31044;BME280;17710;52.520;13.352;2023-11-19T04:31:42;100536.97;;;9.27;75.03
31044;BME280;17710;52.520;13.352;2023-11-19T04:34:09;100537.78;;;9.29;74.96
31044;BME280;17710;52.520;13.352;2023-11-19T04:36:36;100536.44;;;9.17;75.73
31044;BME280;17710;52.520;13.352;2023-11-19T04:39:03;100536.97;;;9.27;75.65
31044;BME280;17710;52.520;13.352;2023-11-19T04:41:33;100547.31;;;9.06;76.69
31044;BME280;17710;52.520;13.352;2023-11-19T04:44:00;100542.78;;;9.38;76.35
31044;BME280;17710;52.520;13.352;2023-11-19T04:46:27;100538.38;;;9.12;76.83
31044;BME280;17710;52.520;13.352;2023-11-19T04:48:54;100530.72;;;9.04;77.53
31044;BME280;17710;52.520;13.352;2023-11-19T04:51:20;100520.66;;;9.15;77.50
31044;BME280;17710;52.520;13.352;2023-11-19T04:53:46;100519.78;;;9.15;77.99
31044;BME280;17710;52.520;13.352;2023-11-19T04:56:13;100509.00;;;8.96;78.84
31044;BME280;17710;52.520;13.352;2023-11-19T04:58:40;100503.81;;;8.93;80.32
31044;BME280;17710;52.520;13.352;2023-11-19T05:01:13;100494.13;;;8.94;79.89
31044;BME280;17710;52.520;13.352;2023-11-19T05:03:41;100496.44;;;9.04;79.61
31044;BME280;17710;52.520;13.352;2023-11-19T05:06:08;100492.69;;;8.85;80.11
31044;BME280;17710;52.520;13.352;2023-11-19T05:08:35;100473.88;;;8.96;79.92
31044;BME280;17710;52.520;13.352;2023-11-19T05:11:02;100466.13;;;8.91;80.52
31044;BME280;17710;52.520;13.352;2023-11-19T05:13:29;100455.81;;;8.85;80.40
31044;BME280;17710;52.520;13.352;2023-11-19T05:15:55;100443.28;;;8.92;80.90
31044;BME280;17710;52.520;13.352;2023-11-19T05:18:21;100440.25;;;8.77;81.17
31044;BME280;17710;52.520;13.352;2023-11-19T05:20:49;100429.50;;;8.84;81.67
31044;BME280;17710;52.520;13.352;2023-11-19T05:23:16;100432.66;;;8.93;80.75
31044;BME280;17710;52.520;13.352;2023-11-19T05:25:42;100435.31;;;8.93;81.28
31044;BME280;17710;52.520;13.352;2023-11-19T05:28:10;100427.41;;;8.93;81.37
31044;BME280;17710;52.520;13.352;2023-11-19T05:30:39;100435.47;;;8.89;81.38
31044;BME280;17710;52.520;13.352;2023-11-19T05:33:06;100423.97;;;8.91;81.15
31044;BME280;17710;52.520;13.352;2023-11-19T05:35:34;100417.06;;;8.87;81.19
31044;BME280;17710;52.520;13.352;2023-11-19T05:38:02;100438.16;;;8.87;81.50
31044;BME280;17710;52.520;13.352;2023-11-19T05:40:28;100412.41;;;8.69;82.39
31044;BME280;17710;52.520;13.352;2023-11-19T05:42:55;100397.88;;;8.84;82.11
31044;BME280;17710;52.520;13.352;2023-11-19T05:45:21;100394.13;;;8.64;82.63
31044;BME280;17710;52.520;13.352;2023-11-19T05:47:47;100376.19;;;8.75;83.29
31044;BME280;17710;52.520;13.352;2023-11-19T05:50:14;100374.13;;;8.85;82.13
31044;BME280;17710;52.520;13.352;2023-11-19T05:52:40;100378.31;;;8.91;82.49
31044;BME280;17710;52.520;13.352;2023-11-19T05:55:08;100367.50;;;8.98;82.44
31044;BME280;17710;52.520;13.352;2023-11-19T05:57:36;100369.53;;;8.90;82.57
31044;BME280;17710;52.520;13.352;2023-11-19T06:00:03;100357.66;;;8.78;82.64
31044;BME280;17710;52.520;13.352;2023-11-19T06:02:32;100357.94;;;8.96;82.81
31044;BME280;17710;52.520;13.352;2023-11-19T06:04:58;100363.47;;;8.88;82.61
31044;BME280;17710;52.520;13.352;2023-11-19T06:07:25;100361.41;;;8.71;83.28
31044;BME280;17710;52.520;13.352;2023-11-19T06:09:51;100363.84;;;9.02;82.88
31044;BME280;17710;52.520;13.352;2023-11-19T06:12:19;100350.41;;;9.10;81.62
31044;BME280;17710;52.520;13.352;2023-11-19T06:14:46;100353.00;;;9.11;81.67
31044;BME280;17710;52.520;13.352;2023-11-19T06:17:12;100344.97;;;8.90;82.28
31044;BME280;17710;52.520;13.352;2023-11-19T06:19:39;100339.22;;;9.03;82.65
31044;BME280;17710;52.520;13.352;2023-11-19T06:22:05;100326.41;;;8.93;82.55
31044;BME280;17710;52.520;13.352;2023-11-19T06:24:31;100335.13;;;8.95;83.19
31044;BME280;17710;52.520;13.352;2023-11-19T06:26:58;100326.63;;;9.11;82.54
31044;BME280;17710;52.520;13.352;2023-11-19T06:29:26;100330.28;;;9.07;82.11
31044;BME280;17710;52.520;13.352;2023-11-19T06:31:52;100328.00;;;9.22;81.41
31044;BME280;17710;52.520;13.352;2023-11-19T06:34:18;100312.41;;;9.15;81.85
31044;BME280;17710;52.520;13.352;2023-11-19T06:36:45;100310.22;;;9.03;82.32
31044;BME280;17710;52.520;13.352;2023-11-19T06:39:16;100299.81;;;9.24;81.87
31044;BME280;17710;52.520;13.352;2023-11-19T06:41:44;100296.69;;;9.12;82.05
31044;BME280;17710;52.520;13.352;2023-11-19T06:44:11;100304.91;;;9.05;82.75
31044;BME280;17710;52.520;13.352;2023-11-19T06:46:39;100309.03;;;9.12;82.39
31044;BME280;17710;52.520;13.352;2023-11-19T06:49:05;100308.56;;;9.01;83.49
31044;BME280;17710;52.520;13.352;2023-11-19T06:51:33;100304.72;;;9.09;82.68
31044;BME280;17710;52.520;13.352;2023-11-19T06:54:02;100297.88;;;9.29;82.11
31044;BME280;17710;52.520;13.352;2023-11-19T06:56:31;100298.50;;;9.35;82.11
31044;BME280;17710;52.520;13.352;2023-11-19T06:58:58;100309.16;;;9.55;81.00
31044;BME280;17710;52.520;13.352;2023-11-19T07:01:24;100306.41;;;9.80;79.33
31044;BME280;17710;52.520;13.352;2023-11-19T07:03:52;100306.78;;;9.71;79.32
31044;BME280;17710;52.520;13.352;2023-11-19T07:06:18;100300.47;;;9.75;79.46
31044;BME280;17710;52.520;13.352;2023-11-19T07:08:44;100302.88;;;9.81;79.62
31044;BME280;17710;52.520;13.352;2023-11-19T07:11:11;100300.81;;;9.66;80.17
31044;BME280;17710;52.520;13.352;2023-11-19T07:13:39;100299.03;;;9.67;80.76
31044;BME280;17710;52.520;13.352;2023-11-19T07:16:07;100312.69;;;9.99;79.40
31044;BME280;17710;52.520;13.352;2023-11-19T07:18:35;100321.34;;;9.81;79.63
31044;BME280;17710;52.520;13.352;2023-11-19T07:21:04;100310.16;;;9.75;80.24
31044;BME280;17710;52.520;13.352;2023-11-19T07:23:30;100313.06;;;9.90;79.92
31044;BME280;17710;52.520;13.352;2023-11-19T07:25:59;100305.13;;;10.12;79.29
31044;BME280;17710;52.520;13.352;2023-11-19T07:28:25;100302.44;;;9.92;80.20
31044;BME280;17710;52.520;13.352;2023-11-19T07:30:54;100301.28;;;9.77;80.93
31044;BME280;17710;52.520;13.352;2023-11-19T07:33:21;100300.91;;;9.86;81.03
31044;BME280;17710;52.520;13.352;2023-11-19T07:35:47;100290.84;;;9.74;81.37
31044;BME280;17710;52.520;13.352;2023-11-19T07:38:15;100290.25;;;9.66;82.01
31044;BME280;17710;52.520;13.352;2023-11-19T07:40:42;100293.38;;;9.77;81.95
31044;BME280;17710;52.520;13.352;2023-11-19T07:43:09;100288.25;;;9.94;81.33
31044;BME280;17710;52.520;13.352;2023-11-19T07:45:35;100294.28;;;10.20;80.15
31044;BME280;17710;52.520;13.352;2023-11-19T07:48:02;100282.44;;;10.30;80.07
31044;BME280;17710;52.520;13.352;2023-11-19T07:50:28;100292.22;;;10.28;79.91
31044;BME280;17710;52.520;13.352;2023-11-19T07:52:56;100298.09;;;10.34;79.39
31044;BME280;17710;52.520;13.352;2023-11-19T07:55:24;100291.66;;;10.20;80.39
31044;BME280;17710;52.520;13.352;2023-11-19T07:57:51;100292.22;;;10.28;80.66
31044;BME280;17710;52.520;13.352;2023-11-19T08:00:18;100303.44;;;10.33;80.25
31044;BME280;17710;52.520;13.352;2023-11-19T08:02:45;100297.13;;;10.37;79.95
31044;BME280;17710;52.520;13.352;2023-11-19T08:05:11;100285.34;;;10.44;79.89
31044;BME280;17710;52.520;13.352;2023-11-19T08:07:37;100274.97;;;10.39;80.11
31044;BME280;17710;52.520;13.352;2023-11-19T08:10:04;100284.91;;;10.55;80.04
31044;BME280;17710;52.520;13.352;2023-11-19T08:12:36;100290.78;;;10.82;78.70
31044;BME280;17710;52.520;13.352;2023-11-19T08:15:03;100296.47;;;10.93;77.84
31044;BME280;17710;52.520;13.352;2023-11-19T08:17:30;100288.59;;;10.91;78.03
31044;BME280;17710;52.520;13.352;2023-11-19T08:19:56;100273.91;;;11.23;76.84
31044;BME280;17710;52.520;13.352;2023-11-19T08:22:23;100255.06;;;11.12;77.37
31044;BME280;17710;52.520;13.352;2023-11-19T08:24:49;100273.72;;;11.09;77.97
31044;BME280;17710;52.520;13.352;2023-11-19T08:27:15;100279.38;;;11.20;78.14
31044;BME280;17710;52.520;13.352;2023-11-19T08:29:43;100288.69;;;11.29;77.24
31044;BME280;17710;52.520;13.352;2023-11-19T08:32:10;100269.66;;;11.39;76.84
31044;BME280;17710;52.520;13.352;2023-11-19T08:34:36;100254.38;;;11.27;77.68
31044;BME280;17710;52.520;13.352;2023-11-19T08:37:03;100247.19;;;11.10;78.56
31044;BME280;17710;52.520;13.352;2023-11-19T08:39:29;100257.72;;;10.92;79.93
31044;BME280;17710;52.520;13.352;2023-11-19T08:41:56;100256.56;;;11.36;78.56
31044;BME280;17710;52.520;13.352;2023-11-19T08:44:23;100250.34;;;11.18;78.54
31044;BME280;17710;52.520;13.352;2023-11-19T08:46:51;100249.59;;;11.35;78.71
31044;BME280;17710;52.520;13.352;2023-11-19T08:49:18;100236.47;;;11.51;78.66
31044;BME280;17710;52.520;13.352;2023-11-19T08:51:45;100244.63;;;11.65;77.93
31044;BME280;17710;52.520;13.352;2023-11-19T08:54:11;100249.13;;;11.63;78.41
31044;BME280;17710;52.520;13.352;2023-11-19T08:56:38;100254.31;;;12.02;76.42
31044;BME280;17710;52.520;13.352;2023-11-19T08:59:05;100247.19;;;11.67;77.87
31044;BME280;17710;52.520;13.352;2023-11-19T09:01:31;100248.63;;;11.92;77.20
31044;BME280;17710;52.520;13.352;2023-11-19T09:03:59;100244.31;;;11.90;77.47
31044;BME280;17710;52.520;13.352;2023-11-19T09:06:25;100237.72;;;11.98;77.07
31044;BME280;17710;52.520;13.352;2023-11-19T09:08:52;100241.06;;;12.02;77.77
31044;BME280;17710;52.520;13.352;2023-11-19T09:11:19;100243.47;;;11.89;77.80
31044;BME280;17710;52.520;13.352;2023-11-19T09:13:45;100249.97;;;11.82;79.20
31044;BME280;17710;52.520;13.352;2023-11-19T09:16:12;100257.22;;;12.15;78.41
31044;BME280;17710;52.520;13.352;2023-11-19T09:18:39;100247.56;;;12.14;78.86
31044;BME280;17710;52.520;13.352;2023-11-19T09:21:07;100259.66;;;12.19;79.23
31044;BME280;17710;52.520;13.352;2023-11-19T09:23:33;100259.78;;;11.99;80.06
31044;BME280;17710;52.520;13.352;2023-11-19T09:26:05;100241.56;;;12.27;79.85
31044;BME280;17710;52.520;13.352;2023-11-19T09:28:32;100250.78;;;12.37;79.28
31044;BME280;17710;52.520;13.352;2023-11-19T09:30:58;100251.31;;;12.78;78.35
31044;BME280;17710;52.520;13.352;2023-11-19T09:33:25;100256.53;;;12.63;79.03
31044;BME280;17710;52.520;13.352;2023-11-19T09:35:51;100238.38;;;12.55;79.85
31044;BME280;17710;52.520;13.352;2023-11-19T09:38:19;100232.44;;;12.67;79.76
31044;BME280;17710;52.520;13.352;2023-11-19T09:40:52;100237.69;;;12.52;80.32
31044;BME280;17710;52.520;13.352;2023-11-19T09:43:22;100228.31;;;12.62;80.49
31044;BME280;17710;52.520;13.352;2023-11-19T09:45:50;100247.31;;;12.70;81.46
31044;BME280;17710;52.520;13.352;2023-11-19T09:48:18;100238.13;;;13.10;79.89
31044;BME280;17710;52.520;13.352;2023-11-19T09:50:46;100226.53;;;12.95;81.13
31044;BME280;17710;52.520;13.352;2023-11-19T09:53:13;100227.06;;;13.19;80.31
31044;BME280;17710;52.520;13.352;2023-11-19T09:55:42;100227.81;;;13.21;80.41
31044;BME280;17710;52.520;13.352;2023-11-19T09:58:10;100227.44;;;13.11;81.34
31044;BME280;17710;52.520;13.352;2023-11-19T10:00:47;100231.88;;;13.44;80.84
31044;BME280;17710;52.520;13.352;2023-11-19T10:03:14;100230.69;;;13.65;79.76
31044;BME280;17710;52.520;13.352;2023-11-19T10:05:40;100226.63;;;13.42;80.65
31044;BME280;17710;52.520;13.352;2023-11-19T10:08:07;100233.84;;;13.56;80.39
31044;BME280;17710;52.520;13.352;2023-11-19T10:10:34;100233.94;;;13.70;80.16
31044;BME280;17710;52.520;13.352;2023-11-19T10:13:03;100229.81;;;13.65;80.81
31044;BME280;17710;52.520;13.352;2023-11-19T10:15:35;100234.69;;;13.72;81.01
31044;BME280;17710;52.520;13.352;2023-11-19T10:18:02;100224.06;;;13.88;80.57
31044;BME280;17710;52.520;13.352;2023-11-19T10:20:35;100220.31;;;13.76;81.47
31044;BME280;17710;52.520;13.352;2023-11-19T10:23:01;100224.31;;;13.83;81.18
31044;BME280;17710;52.520;13.352;2023-11-19T10:25:29;100219.19;;;13.80;81.63
31044;BME280;17710;52.520;13.352;2023-11-19T10:27:56;100230.03;;;13.91;81.65
31044;BME280;17710;52.520;13.352;2023-11-19T10:30:24;100221.03;;;13.94;82.21
31044;BME280;17710;52.520;13.352;2023-11-19T10:33:05;100207.13;;;14.05;81.97
31044;BME280;17710;52.520;13.352;2023-11-19T10:35:32;100197.84;;;14.12;82.35
31044;BME280;17710;52.520;13.352;2023-11-19T10:37:59;100201.22;;;14.45;82.27
31044;BME280;17710;52.520;13.352;2023-11-19T10:40:37;100202.78;;;14.92;80.27
31044;BME280;17710;52.520;13.352;2023-11-19T10:43:05;100200.59;;;14.98;79.37
31044;BME280;17710;52.520;13.352;2023-11-19T10:45:34;100200.69;;;14.68;80.71
31044;BME280;17710;52.520;13.352;2023-11-19T10:48:02;100193.34;;;14.58;82.30
31044;BME280;17710;52.520;13.352;2023-11-19T10:50:29;100187.66;;;14.78;81.96
31044;BME280;17710;52.520;13.352;2023-11-19T10:52:57;100185.31;;;14.88;81.18
31044;BME280;17710;52.520;13.352;2023-11-19T10:55:27;100184.84;;;14.81;81.59
31044;BME280;17710;52.520;13.352;2023-11-19T10:57:55;100185.31;;;14.73;82.03
31044;BME280;17710;52.520;13.352;2023-11-19T11:00:23;100185.09;;;14.48;82.90
31044;BME280;17710;52.520;13.352;2023-11-19T11:02:55;100186.22;;;14.58;83.41
31044;BME280;17710;52.520;13.352;2023-11-19T11:05:24;100196.00;;;14.44;83.87
31044;BME280;17710;52.520;13.352;2023-11-19T11:07:52;100187.75;;;14.32;84.93
31044;BME280;17710;52.520;13.352;2023-11-19T11:10:25;100183.97;;;14.22;85.28
31044;BME280;17710;52.520;13.352;2023-11-19T11:12:52;100187.06;;;14.45;84.63
31044;BME280;17710;52.520;13.352;2023-11-19T11:15:24;100184.34;;;14.01;86.09
31044;BME280;17710;52.520;13.352;2023-11-19T11:17:57;100177.81;;;14.36;84.81
31044;BME280;17710;52.520;13.352;2023-11-19T11:20:26;100182.72;;;14.58;83.47
31044;BME280;17710;52.520;13.352;2023-11-19T11:23:08;100173.59;;;14.48;83.25
31044;BME280;17710;52.520;13.352;2023-11-19T11:25:46;100175.00;;;14.39;84.31
31044;BME280;17710;52.520;13.352;2023-11-19T11:28:28;100170.94;;;14.48;83.20
31044;BME280;17710;52.520;13.352;2023-11-19T11:31:08;100175.59;;;14.58;83.20
31044;BME280;17710;52.520;13.352;2023-11-19T11:33:55;100183.59;;;14.87;81.45
31044;BME280;17710;52.520;13.352;2023-11-19T11:36:25;100184.38;;;14.89;81.41
31044;BME280;17710;52.520;13.352;2023-11-19T11:38:52;100180.56;;;14.93;81.28
31044;BME280;17710;52.520;13.352;2023-11-19T11:41:23;100174.28;;;14.94;81.09
31044;BME280;17710;52.520;13.352;2023-11-19T11:43:51;100178.06;;;15.04;80.50
31044;BME280;17710;52.520;13.352;2023-11-19T11:46:54;100179.13;;;15.15;80.55
31044;BME280;17710;52.520;13.352;2023-11-19T11:49:31;100179.53;;;15.36;80.16
31044;BME280;17710;52.520;13.352;2023-11-19T11:52:01;100183.03;;;15.65;78.66
31044;BME280;17710;52.520;13.352;2023-11-19T11:54:28;100178.34;;;15.69;78.63
31044;BME280;17710;52.520;13.352;2023-11-19T11:57:10;100169.81;;;15.90;76.82
31044;BME280;17710;52.520;13.352;2023-11-19T11:59:42;100173.28;;;15.78;76.90
31044;BME280;17710;52.520;13.352;2023-11-19T12:02:10;100173.63;;;15.60;76.87
31044;BME280;17710;52.520;13.352;2023-11-19T12:04:39;100177.03;;;15.21;78.98
31044;BME280;17710;52.520;13.352;2023-11-19T12:07:06;100179.22;;;15.00;80.32
31044;BME280;17710;52.520;13.352;2023-11-19T12:09:33;100183.00;;;15.24;79.51
31044;BME280;17710;52.520;13.352;2023-11-19T12:12:18;100180.22;;;15.40;78.21
31044;BME280;17710;52.520;13.352;2023-11-19T12:15:06;100177.34;;;15.43;78.10
31044;BME280;17710;52.520;13.352;2023-11-19T12:17:47;100167.69;;;15.69;76.57
31044;BME280;17710;52.520;13.352;2023-11-19T12:20:17;100178.19;;;15.43;77.73
31044;BME280;17710;52.520;13.352;2023-11-19T12:22:45;100178.00;;;15.61;76.48
31044;BME280;17710;52.520;13.352;2023-11-19T12:25:15;100178.00;;;15.46;77.30
31044;BME280;17710;52.520;13.352;2023-11-19T12:27:44;100172.72;;;15.32;78.21
31044;BME280;17710;52.520;13.352;2023-11-19T12:30:12;100172.38;;;15.51;77.21
31044;BME280;17710;52.520;13.352;2023-11-19T12:32:40;100177.00;;;15.35;78.01
31044;BME280;17710;52.520;13.352;2023-11-19T12:35:10;100162.78;;;15.22;78.24
31044;BME280;17710;52.520;13.352;2023-11-19T12:37:45;100172.66;;;15.05;79.70
31044;BME280;17710;52.520;13.352;2023-11-19T12:40:16;100163.44;;;15.11;79.70
31044;BME280;17710;52.520;13.352;2023-11-19T12:42:43;100166.22;;;14.95;80.36
31044;BME280;17710;52.520;13.352;2023-11-19T12:45:10;100159.53;;;15.16;79.11
31044;BME280;17710;52.520;13.352;2023-11-19T12:47:37;100164.28;;;15.26;78.92
31044;BME280;17710;52.520;13.352;2023-11-19T12:50:05;100173.53;;;15.61;77.01